Time;durP1;ratioP1;P1;durP2;ratioP2;P2;SDS_P1;SDS_P2;PMS_P1;PMS_P2;Temp;Humidity;BMP_temperature;BMP_pressure;BME280_temperature;BME280_humidity;BME280_pressure;Samples;Min_cycle;Max_cycle;Signal;HPM_P1;HPM_P2
2023/10/22 00:00:53;;;;;;;;;3.00;1.00;;;;;16.60;100.00;99943.31;5012270;28;45681;-74
2023/10/22 00:03:19;;;;;;;;;5.33;2.00;;;;;16.59;100.00;99945.09;5020628;27;47391;-73
2023/10/22 00:05:44;;;;;;;;;5.67;2.00;;;;;16.60;100.00;99960.19;5052684;27;54439;-73
2023/10/22 00:08:09;;;;;;;;;3.67;3.00;;;;;16.61;100.00;99953.91;5028176;27;51519;-74
2023/10/22 00:10:35;;;;;;;;;2.00;2.00;;;;;16.63;100.00;99954.78;5020356;27;65338;-74
2023/10/22 00:13:00;;;;;;;;;5.33;2.00;;;;;16.63;100.00;99960.09;5033900;27;59590;-74
2023/10/22 00:15:26;;;;;;;;;7.67;2.00;;;;;16.61;100.00;99967.25;5019264;27;46022;-73
2023/10/22 00:17:53;;;;;;;;;4.33;1.00;;;;;16.62;100.00;99965.44;5014318;28;47430;-74
2023/10/22 00:20:19;;;;;;;;;10.00;2.00;;;;;16.62;100.00;99977.03;5015689;27;45533;-74
2023/10/22 00:22:45;;;;;;;;;8.00;2.00;;;;;16.65;100.00;99976.03;5014956;28;45375;-74
2023/10/22 00:25:10;;;;;;;;;3.67;2.00;;;;;16.64;100.00;99969.84;5012769;28;45525;-74
2023/10/22 00:27:35;;;;;;;;;4.00;1.00;;;;;16.66;100.00;99968.00;5013919;28;47404;-74
2023/10/22 00:30:01;;;;;;;;;1.33;1.33;;;;;16.69;100.00;99972.38;5014377;28;46473;-75
2023/10/22 00:32:27;;;;;;;;;4.67;2.33;;;;;16.70;100.00;99969.66;5007289;28;48538;-74
2023/10/22 00:34:52;;;;;;;;;6.67;1.33;;;;;16.72;100.00;99978.56;5020378;27;45603;-74
2023/10/22 00:37:17;;;;;;;;;4.00;2.33;;;;;16.72;100.00;99974.97;5034302;27;46532;-73
2023/10/22 00:39:43;;;;;;;;;1.00;1.00;;;;;16.71;100.00;99981.22;5015410;27;58119;-74
2023/10/22 00:42:11;;;;;;;;;4.33;1.33;;;;;16.68;100.00;99982.19;5014338;27;45281;-73
2023/10/22 00:44:37;;;;;;;;;4.00;3.00;;;;;16.77;100.00;99989.06;5025232;27;45442;-74
2023/10/22 00:47:06;;;;;;;;;5.00;2.00;;;;;16.79;100.00;99991.69;5014153;28;47234;-73
2023/10/22 00:49:32;;;;;;;;;2.00;1.67;;;;;16.76;100.00;99984.66;5010732;27;45233;-73
2023/10/22 00:51:58;;;;;;;;;3.67;0.67;;;;;16.75;100.00;99989.09;5040315;27;45433;-74
2023/10/22 00:54:26;;;;;;;;;2.00;0.00;;;;;16.75;100.00;99999.78;5017042;27;53482;-73
2023/10/22 00:56:51;;;;;;;;;3.00;1.33;;;;;16.75;100.00;99997.09;5014122;28;46279;-74
2023/10/22 00:59:17;;;;;;;;;4.33;1.00;;;;;16.79;100.00;99999.69;5025033;28;45537;-73
2023/10/22 01:01:43;;;;;;;;;7.67;2.00;;;;;16.80;100.00;100012.09;5040438;27;46718;-74
2023/10/22 01:04:09;;;;;;;;;4.00;1.00;;;;;16.83;100.00;100004.91;5019199;27;45575;-73
2023/10/22 01:06:35;;;;;;;;;6.33;2.67;;;;;16.80;100.00;100004.97;5013224;28;46469;-73
2023/10/22 01:09:01;;;;;;;;;4.33;2.00;;;;;16.81;100.00;100014.72;5017850;27;45416;-73
2023/10/22 01:11:27;;;;;;;;;3.00;1.00;;;;;16.82;100.00;100015.59;5014555;27;45537;-73
2023/10/22 01:13:53;;;;;;;;;4.00;1.00;;;;;16.80;100.00;100017.44;5019077;27;45527;-73
2023/10/22 01:16:18;;;;;;;;;5.33;1.67;;;;;16.79;100.00;100015.69;5024559;27;52810;-74
2023/10/22 01:18:43;;;;;;;;;1.67;1.33;;;;;16.77;100.00;100019.25;5013772;28;45338;-73
2023/10/22 01:21:09;;;;;;;;;6.00;0.33;;;;;16.77;100.00;100027.25;5013537;28;49548;-73
2023/10/22 01:23:38;;;;;;;;;1.00;1.00;;;;;16.81;100.00;100029.84;5014950;27;46567;-73
2023/10/22 01:26:07;;;;;;;;;4.33;2.00;;;;;16.82;100.00;100026.25;5038166;27;46490;-73
2023/10/22 01:28:33;;;;;;;;;2.33;1.00;;;;;16.81;100.00;100025.38;5013411;28;45528;-74
2023/10/22 01:30:58;;;;;;;;;1.00;1.00;;;;;16.83;100.00;100039.56;5020256;27;45457;-73
2023/10/22 01:33:24;;;;;;;;;5.00;1.00;;;;;16.81;100.00;100045.84;5015213;27;54228;-73
2023/10/22 01:35:49;;;;;;;;;6.00;2.33;;;;;16.76;100.00;100037.97;5022914;27;47263;-74
2023/10/22 01:38:15;;;;;;;;;2.33;1.00;;;;;16.74;100.00;100039.81;5012738;28;45397;-74
2023/10/22 01:40:40;;;;;;;;;4.67;1.00;;;;;16.73;100.00;100038.94;5013092;27;57156;-73
2023/10/22 01:43:05;;;;;;;;;6.00;1.33;;;;;16.73;100.00;100038.94;5031795;27;45462;-73
2023/10/22 01:45:31;;;;;;;;;5.67;1.00;;;;;16.75;100.00;100037.09;5013571;28;47302;-73
2023/10/22 01:47:56;;;;;;;;;5.00;1.00;;;;;16.77;100.00;100042.38;5013263;28;45409;-74
2023/10/22 01:50:21;;;;;;;;;1.00;1.00;;;;;16.77;100.00;100047.72;5031132;27;45405;-74
2023/10/22 01:52:47;;;;;;;;;0.33;0.33;;;;;16.79;100.00;100039.69;5013861;28;45433;-73
2023/10/22 01:55:12;;;;;;;;;1.00;1.00;;;;;16.81;100.00;100045.84;5036879;27;47066;-73
2023/10/22 01:57:38;;;;;;;;;4.33;1.67;;;;;16.83;100.00;100047.56;5013833;28;45331;-73
2023/10/22 02:00:04;;;;;;;;;2.00;0.00;;;;;16.82;100.00;100052.91;5019269;27;56405;-74
2023/10/22 02:02:29;;;;;;;;;4.00;1.00;;;;;16.86;100.00;100059.94;5010949;28;45293;-73
2023/10/22 02:04:55;;;;;;;;;2.33;2.00;;;;;16.86;100.00;100044.81;5014657;27;53817;-73
2023/10/22 02:07:20;;;;;;;;;4.00;1.00;;;;;16.90;100.00;100057.16;5013285;28;45386;-73
2023/10/22 02:09:45;;;;;;;;;5.67;1.00;;;;;16.90;100.00;100054.47;5014450;27;56806;-73
2023/10/22 02:12:11;;;;;;;;;2.67;1.67;;;;;16.90;100.00;100065.13;5017169;27;45575;-73
2023/10/22 02:14:36;;;;;;;;;3.00;1.00;;;;;16.90;100.00;100070.47;5030722;27;55512;-73
2023/10/22 02:19:37;;;;;;;;;4.67;2.00;;;;;16.91;100.00;100069.56;4886497;25;45557;-73
2023/10/22 02:22:02;;;;;;;;;2.00;2.00;;;;;16.91;100.00;100066.88;4980851;28;45548;-73
2023/10/22 02:24:28;;;;;;;;;2.33;1.67;;;;;16.89;100.00;100066.06;4980075;28;46806;-73
2023/10/22 02:26:53;;;;;;;;;3.33;1.00;;;;;16.89;100.00;100071.41;4967808;28;45429;-73
2023/10/22 02:29:19;;;;;;;;;4.00;2.00;;;;;16.88;100.00;100074.09;4995826;28;57844;-73
2023/10/22 02:31:44;;;;;;;;;3.00;2.00;;;;;16.88;100.00;100082.09;4989729;28;54416;-73
2023/10/22 02:34:09;;;;;;;;;5.67;1.67;;;;;16.87;100.00;100085.66;4990774;28;47261;-73
2023/10/22 02:36:35;;;;;;;;;6.00;1.00;;;;;16.89;100.00;100089.19;4975478;28;45480;-73
2023/10/22 02:39:01;;;;;;;;;3.33;2.33;;;;;16.89;100.00;100095.41;4971896;28;45731;-73
2023/10/22 02:41:28;;;;;;;;;1.67;1.67;;;;;16.91;100.00;100088.22;4972102;28;45905;-73
2023/10/22 02:43:54;;;;;;;;;3.00;2.00;;;;;16.89;100.00;100095.41;4976162;28;46632;-73
2023/10/22 02:46:19;;;;;;;;;3.00;1.00;;;;;16.89;100.00;100092.72;4973683;28;45906;-73
2023/10/22 02:48:45;;;;;;;;;6.00;1.33;;;;;16.89;100.00;100091.84;5007792;28;45527;-73
2023/10/22 02:51:10;;;;;;;;;3.00;2.33;;;;;16.87;100.00;100091.00;4977157;28;58919;-73
2023/10/22 02:53:38;;;;;;;;;4.67;2.00;;;;;16.85;100.00;100095.50;4978104;28;46223;-73
2023/10/22 02:56:03;;;;;;;;;6.33;1.00;;;;;16.86;100.00;100091.94;4972339;28;45396;-72
2023/10/22 02:58:29;;;;;;;;;2.67;1.00;;;;;16.85;100.00;100107.06;4983910;28;45493;-73
2023/10/22 03:00:55;;;;;;;;;1.67;1.00;;;;;16.84;100.00;100107.09;4977828;28;45425;-73
2023/10/22 03:03:21;;;;;;;;;4.00;0.67;;;;;16.86;100.00;100118.59;4987183;28;46153;-73
2023/10/22 03:05:47;;;;;;;;;4.00;2.00;;;;;16.89;100.00;100115.84;4974700;28;45445;-73
2023/10/22 03:08:12;;;;;;;;;2.00;1.67;;;;;16.86;100.00;100122.13;4987327;28;65355;-73
2023/10/22 03:10:37;;;;;;;;;6.67;2.00;;;;;16.86;100.00;100121.25;4986743;28;52284;-73
2023/10/22 03:13:04;;;;;;;;;1.67;1.67;;;;;16.87;100.00;100129.22;4999463;28;46516;-73
2023/10/22 03:15:30;;;;;;;;;5.00;1.00;;;;;16.85;100.00;100132.84;4977596;28;45342;-73
2023/10/22 03:17:56;;;;;;;;;1.67;1.00;;;;;16.86;100.00;100134.59;5000410;28;46145;-73
2023/10/22 03:20:22;;;;;;;;;6.33;1.00;;;;;16.87;100.00;100131.00;5002118;28;45326;-73
2023/10/22 03:22:48;;;;;;;;;1.00;1.00;;;;;16.90;100.00;100130.94;4973267;28;46304;-73
2023/10/22 03:25:13;;;;;;;;;2.00;1.00;;;;;16.92;100.00;100145.09;4971862;28;45428;-73
2023/10/22 03:27:39;;;;;;;;;3.33;1.00;;;;;16.93;100.00;100137.03;4979729;28;51732;-73
2023/10/22 03:30:05;;;;;;;;;1.00;1.00;;;;;16.94;100.00;100140.63;4980442;28;45441;-73
2023/10/22 03:32:31;;;;;;;;;4.67;1.00;;;;;16.90;100.00;100141.59;4972329;28;47104;-73
2023/10/22 03:34:56;;;;;;;;;6.67;2.67;;;;;16.92;100.00;100139.75;4973315;28;45534;-73
2023/10/22 03:37:21;;;;;;;;;2.67;1.67;;;;;16.90;100.00;100145.16;4972999;28;45605;-73
2023/10/22 03:39:47;;;;;;;;;4.33;0.67;;;;;16.89;100.00;100150.53;4977085;28;59712;-73
2023/10/22 03:42:12;;;;;;;;;3.33;0.33;;;;;16.91;100.00;100154.88;4987681;28;47242;-73
2023/10/22 03:44:37;;;;;;;;;8.33;2.00;;;;;16.89;100.00;100161.19;5000601;28;62198;-73
2023/10/22 03:47:03;;;;;;;;;8.00;1.33;;;;;16.86;100.00;100161.25;4980960;28;45434;-73
2023/10/22 03:49:28;;;;;;;;;2.00;0.00;;;;;16.85;100.00;100162.19;4971878;28;60126;-73
2023/10/22 03:51:54;;;;;;;;;0.00;0.00;;;;;16.86;100.00;100167.47;4989700;28;47435;-73
2023/10/22 03:54:19;;;;;;;;;2.00;0.33;;;;;16.84;100.00;100173.75;4972854;28;45238;-73
2023/10/22 03:56:44;;;;;;;;;1.00;1.00;;;;;16.80;100.00;100178.28;5036166;28;57589;-73
2023/10/22 03:59:10;;;;;;;;;3.00;1.67;;;;;16.81;100.00;100174.69;4973147;28;45460;-73
2023/10/22 04:01:35;;;;;;;;;3.00;0.00;;;;;16.79;100.00;100189.00;4973448;28;47247;-72
2023/10/22 04:04:00;;;;;;;;;2.67;0.00;;;;;16.73;100.00;100182.91;4975500;28;45420;-73
2023/10/22 04:06:26;;;;;;;;;2.00;1.00;;;;;16.74;100.00;100191.78;4983440;28;60742;-73
2023/10/22 04:08:51;;;;;;;;;3.00;0.33;;;;;16.69;100.00;100202.50;5059363;28;61783;-73
2023/10/22 04:11:20;;;;;;;;;6.33;0.67;;;;;16.66;100.00;100199.91;4982422;28;71478;-73
2023/10/22 04:13:45;;;;;;;;;3.00;0.33;;;;;16.63;100.00;100199.13;4979352;28;45519;-73
2023/10/22 04:16:17;;;;;;;;;3.67;1.00;;;;;16.58;100.00;100198.34;4975452;28;45469;-73
2023/10/22 04:18:42;;;;;;;;;2.33;0.00;;;;;16.61;100.00;100209.78;4975454;28;45291;-73
2023/10/22 04:21:15;;;;;;;;;4.00;0.00;;;;;16.60;100.00;100210.72;4975061;28;47093;-73
2023/10/22 04:23:40;;;;;;;;;2.00;1.00;;;;;16.59;100.00;100216.97;4975052;28;45386;-73
2023/10/22 04:26:11;;;;;;;;;3.00;0.67;;;;;16.56;100.00;100225.03;4975035;28;45416;-73
2023/10/22 04:28:36;;;;;;;;;2.00;0.67;;;;;16.57;100.00;100226.81;4975542;28;45571;-73
2023/10/22 04:31:02;;;;;;;;;3.00;0.67;;;;;16.56;100.00;100226.81;4976311;28;67359;-73
2023/10/22 04:33:27;;;;;;;;;2.33;0.33;;;;;16.56;100.00;100233.00;4975034;28;45342;-73
2023/10/22 04:35:52;;;;;;;;;2.00;2.00;;;;;16.54;100.00;100236.66;4990206;28;61168;-73
2023/10/22 04:38:18;;;;;;;;;1.67;0.00;;;;;16.53;100.00;100232.22;4990879;28;64090;-73
2023/10/22 04:40:43;;;;;;;;;1.00;0.67;;;;;16.57;100.00;100249.91;4974202;28;62500;-73
2023/10/22 04:43:09;;;;;;;;;5.67;0.67;;;;;16.59;100.00;100251.63;4992202;28;45317;-73
2023/10/22 04:45:34;;;;;;;;;1.33;0.33;;;;;16.57;100.00;100244.59;4978488;28;45350;-73
2023/10/22 04:48:00;;;;;;;;;8.00;1.00;;;;;16.59;100.00;100254.28;4975154;28;45627;-73
2023/10/22 04:50:25;;;;;;;;;2.00;0.00;;;;;16.59;100.00;100248.94;4975900;28;72531;-73
2023/10/22 04:52:51;;;;;;;;;2.00;0.33;;;;;16.58;100.00;100252.53;4974923;28;45195;-73
2023/10/22 04:55:17;;;;;;;;;0.33;0.33;;;;;16.58;100.00;100263.19;4974723;28;45514;-73
2023/10/22 04:57:42;;;;;;;;;1.00;1.00;;;;;16.57;100.00;100261.44;4988674;28;62564;-73
2023/10/22 05:00:10;;;;;;;;;1.00;0.00;;;;;16.56;100.00;100266.78;4990763;28;68754;-73
2023/10/22 05:02:36;;;;;;;;;5.67;1.00;;;;;16.52;100.00;100270.47;4974987;28;45402;-73
2023/10/22 05:05:02;;;;;;;;;2.33;1.00;;;;;16.53;100.00;100270.41;4974457;28;45234;-73
2023/10/22 05:07:27;;;;;;;;;3.67;0.67;;;;;16.48;100.00;100286.50;4974669;28;45429;-73
2023/10/22 05:09:52;;;;;;;;;2.00;0.00;;;;;16.43;100.00;100290.19;4990372;28;59331;-74
2023/10/22 05:12:18;;;;;;;;;3.33;1.00;;;;;16.43;100.00;100288.38;4974553;28;66868;-74
2023/10/22 05:14:43;;;;;;;;;2.00;0.67;;;;;16.45;100.00;100294.56;4986996;28;45425;-73
2023/10/22 05:17:08;;;;;;;;;3.00;1.00;;;;;16.46;100.00;100295.47;4978561;28;64113;-73
2023/10/22 05:19:35;;;;;;;;;1.67;1.00;;;;;16.49;100.00;100304.25;4974343;28;46429;-73
2023/10/22 05:22:00;;;;;;;;;3.33;1.67;;;;;16.52;100.00;100310.44;4974495;28;45459;-73
2023/10/22 05:24:26;;;;;;;;;0.00;0.00;;;;;16.52;100.00;100307.78;4974416;28;45436;-73
2023/10/22 05:26:51;;;;;;;;;1.67;1.00;;;;;16.52;100.00;100308.66;4975109;28;45535;-73
2023/10/22 05:29:17;;;;;;;;;1.00;1.00;;;;;16.53;100.00;100309.53;4973956;28;46384;-73
2023/10/22 05:31:42;;;;;;;;;7.00;1.33;;;;;16.58;100.00;100320.97;4979180;28;45384;-73
2023/10/22 05:34:08;;;;;;;;;5.00;0.33;;;;;16.56;100.00;100318.31;4974830;28;45527;-74
2023/10/22 05:36:34;;;;;;;;;4.67;1.33;;;;;16.60;100.00;100322.66;4974680;28;45476;-73
2023/10/22 05:39:00;;;;;;;;;2.00;1.00;;;;;16.62;100.00;100327.94;4973961;28;57456;-73
2023/10/22 05:41:27;;;;;;;;;1.33;1.33;;;;;16.64;100.00;100324.38;4971935;28;45432;-73
2023/10/22 05:43:59;;;;;;;;;6.00;1.00;;;;;16.65;100.00;100328.78;4981536;28;45229;-73
2023/10/22 05:46:33;;;;;;;;;4.67;1.00;;;;;16.68;100.00;100338.50;4974326;28;45390;-73
2023/10/22 05:48:59;;;;;;;;;1.00;1.00;;;;;16.66;100.00;100333.19;4974392;28;47328;-73
2023/10/22 05:51:25;;;;;;;;;3.33;0.00;;;;;16.66;100.00;100335.84;4975607;28;45400;-73
2023/10/22 05:53:50;;;;;;;;;3.67;1.33;;;;;16.71;100.00;100335.78;4981594;28;45350;-73
2023/10/22 05:56:15;;;;;;;;;4.33;1.00;;;;;16.72;100.00;100348.19;4974071;28;45302;-73
2023/10/22 05:58:41;;;;;;;;;2.33;1.00;;;;;16.72;100.00;100361.53;4973364;28;63457;-73
2023/10/22 06:01:08;;;;;;;;;5.33;1.00;;;;;16.71;100.00;100371.31;4973120;28;67007;-73
2023/10/22 06:03:33;;;;;;;;;1.67;1.00;;;;;16.71;100.00;100357.13;4974078;28;45544;-73
2023/10/22 06:05:59;;;;;;;;;5.00;1.00;;;;;16.71;100.00;100347.34;4973862;28;45478;-73
2023/10/22 06:08:24;;;;;;;;;2.33;0.00;;;;;16.72;100.00;100367.78;4978458;28;53407;-73
2023/10/22 06:10:49;;;;;;;;;1.67;1.00;;;;;16.66;100.00;100373.19;4973162;28;64363;-73
2023/10/22 06:13:15;;;;;;;;;1.00;1.00;;;;;16.69;100.00;100372.25;4973246;28;52216;-73
2023/10/22 06:15:43;;;;;;;;;1.33;0.33;;;;;16.70;100.00;100377.53;4973673;28;45606;-73
2023/10/22 06:18:09;;;;;;;;;4.00;1.00;;;;;16.67;100.00;100382.97;4973412;28;47611;-73
2023/10/22 06:20:35;;;;;;;;;3.67;1.00;;;;;16.68;100.00;100387.38;4973888;28;45646;-73
2023/10/22 06:23:01;;;;;;;;;2.00;1.00;;;;;16.68;100.00;100394.50;5016604;28;45373;-73
2023/10/22 06:25:27;;;;;;;;;2.00;1.00;;;;;16.66;100.00;100394.50;4973248;28;45547;-73
2023/10/22 06:27:55;;;;;;;;;4.00;1.00;;;;;16.62;100.00;100398.16;4975322;28;71647;-73
2023/10/22 06:30:25;;;;;;;;;2.00;1.00;;;;;16.66;100.00;100412.28;4973587;28;45459;-73
2023/10/22 06:32:51;;;;;;;;;1.33;1.00;;;;;16.68;100.00;100410.50;4977858;28;45560;-73
2023/10/22 06:35:16;;;;;;;;;3.00;0.00;;;;;16.66;100.00;100415.81;4975935;28;45603;-73
2023/10/22 06:37:42;;;;;;;;;2.67;0.00;;;;;16.65;100.00;100416.75;4975442;28;46249;-73
2023/10/22 06:40:08;;;;;;;;;2.00;1.00;;;;;16.66;100.00;100425.63;4972766;28;67972;-73
2023/10/22 06:42:36;;;;;;;;;2.33;0.33;;;;;16.68;100.00;100423.81;4973672;28;45492;-73
2023/10/22 06:45:05;;;;;;;;;5.00;0.33;;;;;16.69;100.00;100425.56;4983572;28;45473;-73
2023/10/22 06:47:34;;;;;;;;;4.33;0.00;;;;;16.71;100.00;100413.97;4989127;28;47390;-73
2023/10/22 06:49:59;;;;;;;;;3.67;1.00;;;;;16.73;100.00;100430.84;4976161;28;45518;-73
2023/10/22 06:52:25;;;;;;;;;3.00;0.00;;;;;16.71;100.00;100427.31;4972802;28;63839;-73
2023/10/22 06:54:50;;;;;;;;;1.00;1.00;;;;;16.71;100.00;100435.31;4974755;28;64499;-73
2023/10/22 06:57:15;;;;;;;;;1.00;0.00;;;;;16.74;100.00;100439.72;4989025;28;63844;-73
2023/10/22 06:59:41;;;;;;;;;2.00;1.00;;;;;16.76;100.00;100446.75;4972920;28;69171;-73
2023/10/22 07:02:07;;;;;;;;;4.00;1.00;;;;;16.81;100.00;100449.34;4972754;28;45640;-73
2023/10/22 07:04:32;;;;;;;;;5.33;0.33;;;;;16.81;100.00;100445.78;4973270;28;46022;-73
2023/10/22 07:06:58;;;;;;;;;1.33;0.00;;;;;16.81;100.00;100456.47;4972591;28;66249;-73
2023/10/22 07:09:23;;;;;;;;;5.33;1.00;;;;;16.74;100.00;100456.59;4973105;28;45425;-73
2023/10/22 07:11:48;;;;;;;;;2.33;0.00;;;;;16.81;100.00;100467.13;4997343;28;45444;-73
2023/10/22 07:14:13;;;;;;;;;3.00;1.00;;;;;16.77;100.00;100471.63;4970906;28;56835;-73
2023/10/22 07:16:39;;;;;;;;;2.00;1.00;;;;;16.78;100.00;100481.41;4994810;28;47813;-73
2023/10/22 07:19:04;;;;;;;;;2.00;0.33;;;;;16.80;100.00;100479.59;4976534;28;45483;-73
2023/10/22 07:21:30;;;;;;;;;1.33;0.67;;;;;16.80;100.00;100489.38;4984531;28;45438;-73
2023/10/22 07:23:55;;;;;;;;;3.33;0.33;;;;;16.88;100.00;100495.41;4993313;28;62899;-73
2023/10/22 07:26:20;;;;;;;;;1.00;1.00;;;;;16.93;100.00;100496.19;4970983;28;46290;-73
2023/10/22 07:28:46;;;;;;;;;0.00;0.00;;;;;16.95;100.00;100507.72;4973038;28;45417;-73
2023/10/22 07:31:14;;;;;;;;;1.33;1.00;;;;;16.90;100.00;100502.50;4982024;28;45492;-73
2023/10/22 07:33:39;;;;;;;;;0.00;0.00;;;;;16.92;100.00;100513.13;4972042;28;45451;-73
2023/10/22 07:36:05;;;;;;;;;0.00;0.00;;;;;16.94;100.00;100524.66;4973275;28;45700;-73
2023/10/22 07:38:32;;;;;;;;;1.00;0.67;;;;;16.94;100.00;100522.88;4975313;28;45932;-73
2023/10/22 07:40:58;;;;;;;;;1.33;0.00;;;;;16.95;100.00;100531.75;4965639;28;45579;-72
2023/10/22 07:43:25;;;;;;;;;1.00;1.00;;;;;16.99;100.00;100531.66;4972357;28;49497;-73
2023/10/22 07:45:50;;;;;;;;;2.00;0.00;;;;;16.99;100.00;100541.41;4973072;28;47270;-73
2023/10/22 07:48:16;;;;;;;;;5.67;0.00;;;;;16.99;100.00;100552.09;4965249;28;47075;-73
2023/10/22 07:50:41;;;;;;;;;6.00;0.00;;;;;16.89;100.00;100546.06;4972768;28;45512;-72
2023/10/22 07:53:07;;;;;;;;;2.67;1.00;;;;;16.92;100.00;100546.00;4975078;28;45437;-73
2023/10/22 07:55:33;;;;;;;;;1.00;1.00;;;;;16.94;100.00;100562.00;5042235;28;47302;-73
2023/10/22 07:57:59;;;;;;;;;3.67;0.00;;;;;16.96;100.00;100560.16;4971282;28;45582;-72
2023/10/22 08:00:25;;;;;;;;;2.00;0.00;;;;;16.95;100.00;100555.75;4971528;28;45581;-72
2023/10/22 08:02:51;;;;;;;;;1.33;1.00;;;;;16.92;100.00;100546.00;4974062;28;45901;-73
2023/10/22 08:05:16;;;;;;;;;2.00;1.00;;;;;16.93;100.00;100553.09;4974351;28;47133;-75
2023/10/22 08:07:42;;;;;;;;;1.00;1.00;;;;;16.96;100.00;100568.16;4962566;28;45487;-72
2023/10/22 08:10:07;;;;;;;;;3.33;1.67;;;;;16.97;100.00;100569.91;4963237;28;46050;-73
2023/10/22 08:12:33;;;;;;;;;3.00;2.00;;;;;16.97;100.00;100570.78;4965397;28;45999;-71
2023/10/22 08:14:58;;;;;;;;;5.00;2.00;;;;;17.06;100.00;100571.53;4962777;28;46464;-71
2023/10/22 08:17:23;;;;;;;;;0.00;0.00;;;;;17.04;100.00;100571.53;4965299;28;51840;-71
2023/10/22 08:19:49;;;;;;;;;4.00;1.67;;;;;17.05;100.00;100562.66;4966696;28;48331;-71
2023/10/22 08:22:16;;;;;;;;;0.33;0.33;;;;;17.06;100.00;100566.19;4965526;28;45442;-71
2023/10/22 08:24:45;;;;;;;;;2.00;1.00;;;;;17.07;100.00;100567.97;4961289;28;46527;-71
2023/10/22 08:27:11;;;;;;;;;3.00;1.00;;;;;17.10;100.00;100581.22;4965764;28;45546;-71
2023/10/22 08:29:37;;;;;;;;;2.67;1.00;;;;;17.14;100.00;100583.78;4962687;28;45414;-70
2023/10/22 08:32:03;;;;;;;;;3.00;2.00;;;;;17.09;100.00;100574.13;4974122;28;45468;-70
2023/10/22 08:34:28;;;;;;;;;2.00;1.00;;;;;17.06;100.00;100585.75;4971916;28;45430;-70
2023/10/22 08:36:53;;;;;;;;;4.00;1.00;;;;;17.00;100.00;100575.22;4967529;28;57289;-70
2023/10/22 08:39:19;;;;;;;;;1.67;0.33;;;;;16.98;100.00;100593.00;4966561;28;45974;-70
2023/10/22 08:41:49;;;;;;;;;6.33;0.00;;;;;16.90;100.00;100594.97;4961921;28;50684;-70
2023/10/22 08:44:15;;;;;;;;;1.00;1.00;;;;;16.89;100.00;100604.75;5041962;28;46727;-72
2023/10/22 08:46:42;;;;;;;;;4.00;1.00;;;;;16.81;100.00;100614.66;4974179;28;45467;-72
2023/10/22 08:49:09;;;;;;;;;1.00;1.00;;;;;16.77;100.00;100615.63;4968072;28;45534;-70
2023/10/22 08:51:34;;;;;;;;;4.00;1.00;;;;;16.75;100.00;100617.44;4973838;28;45307;-70
2023/10/22 08:54:01;;;;;;;;;1.00;1.00;;;;;16.74;100.00;100621.91;5040168;28;54856;-70
2023/10/22 08:56:27;;;;;;;;;1.00;1.00;;;;;16.77;100.00;100624.50;4974705;28;45429;-69
2023/10/22 08:58:52;;;;;;;;;2.00;1.00;;;;;16.76;100.00;100636.06;4974166;28;45620;-70
2023/10/22 09:01:18;;;;;;;;;4.00;1.00;;;;;16.78;100.00;100633.41;4982214;28;45514;-70
2023/10/22 09:03:43;;;;;;;;;3.67;1.33;;;;;16.82;100.00;100635.09;5039530;28;58197;-69
2023/10/22 09:06:08;;;;;;;;;2.00;1.00;;;;;16.88;100.00;100642.09;4972800;28;63108;-70
2023/10/22 09:08:42;;;;;;;;;1.00;1.00;;;;;16.98;100.00;100643.69;4974754;28;45325;-70
2023/10/22 09:11:14;;;;;;;;;2.00;2.00;;;;;17.00;100.00;100653.44;4973502;28;45521;-69
2023/10/22 09:13:40;;;;;;;;;4.00;1.00;;;;;17.03;100.00;100661.38;4973755;28;46678;-70
2023/10/22 09:16:06;;;;;;;;;7.00;4.67;;;;;17.05;100.00;100649.81;4974112;28;45953;-68
2023/10/22 09:18:31;;;;;;;;;5.00;2.00;;;;;17.13;100.00;100651.41;4972967;28;45531;-69
2023/10/22 09:21:06;;;;;;;;;4.00;1.67;;;;;17.24;100.00;100652.09;4973369;28;60142;-71
2023/10/22 09:23:32;;;;;;;;;3.00;1.00;;;;;17.31;100.00;100654.63;4974181;28;47258;-71
2023/10/22 09:25:57;;;;;;;;;1.67;1.00;;;;;17.43;100.00;100662.41;4972394;28;70007;-71
2023/10/22 09:28:25;;;;;;;;;3.33;1.00;;;;;17.52;100.00;100662.22;4974386;28;45426;-72
2023/10/22 09:31:08;;;;;;;;;2.00;0.33;;;;;17.63;100.00;100667.31;4974596;28;45527;-71
2023/10/22 09:33:37;;;;;;;;;1.33;0.00;;;;;17.70;100.00;100659.19;4974101;28;47577;-71
2023/10/22 09:36:04;;;;;;;;;5.00;1.00;;;;;17.73;100.00;100653.78;4974529;28;45480;-71
2023/10/22 09:38:46;;;;;;;;;4.00;1.00;;;;;17.78;100.00;100659.91;4975142;28;45605;-71
2023/10/22 09:41:27;;;;;;;;;2.00;1.00;;;;;17.84;100.00;100660.69;4972574;28;45355;-71
2023/10/22 09:43:54;;;;;;;;;1.00;1.00;;;;;17.90;100.00;100653.44;4973213;28;46647;-71
2023/10/22 09:46:20;;;;;;;;;4.33;1.00;;;;;17.99;100.00;100644.31;4972704;28;45539;-71
2023/10/22 09:48:50;;;;;;;;;5.00;1.00;;;;;18.08;100.00;100652.16;5040685;28;45675;-71
2023/10/22 09:51:17;;;;;;;;;3.33;0.33;;;;;18.15;100.00;100640.38;4974064;28;45637;-71
2023/10/22 09:53:51;;;;;;;;;3.33;1.00;;;;;18.28;100.00;100646.34;5039776;28;47737;-70
2023/10/22 09:56:19;;;;;;;;;1.33;1.33;;;;;18.35;100.00;100644.41;4972446;28;45384;-70
2023/10/22 09:58:47;;;;;;;;;1.00;1.00;;;;;18.39;100.00;100643.41;4971483;28;45506;-71
2023/10/22 10:01:13;;;;;;;;;4.00;1.00;;;;;18.39;100.00;100644.28;4999893;28;45479;-71
2023/10/22 10:03:40;;;;;;;;;1.67;1.00;;;;;18.35;100.00;100652.41;4972749;28;46572;-71
2023/10/22 10:06:07;;;;;;;;;2.00;0.00;;;;;18.31;100.00;100646.25;4972523;28;45433;-71
2023/10/22 10:08:37;;;;;;;;;3.00;1.00;;;;;18.32;100.00;100656.03;4972872;28;45607;-71
2023/10/22 10:11:05;;;;;;;;;1.00;1.00;;;;;18.37;100.00;100651.44;4973390;28;45468;-71
2023/10/22 10:13:30;;;;;;;;;2.00;1.00;;;;;18.41;100.00;100639.78;4973151;28;47677;-71
2023/10/22 10:15:59;;;;;;;;;3.00;1.00;;;;;18.36;100.00;100638.13;4972935;28;51578;-71
2023/10/22 10:19:08;;;;;;;;;3.67;1.00;;;;;18.35;100.00;100652.41;4973567;28;45555;-70
2023/10/22 10:21:38;;;;;;;;;2.00;1.00;;;;;18.37;100.00;100646.09;4972135;28;45558;-70
2023/10/22 10:24:23;;;;;;;;;1.00;1.00;;;;;18.39;100.00;100654.13;4972169;28;47003;-70
2023/10/22 10:27:11;;;;;;;;;2.00;0.33;;;;;18.33;100.00;100645.31;4972779;28;45310;-71
2023/10/22 10:29:36;;;;;;;;;0.67;0.67;;;;;18.37;100.00;100645.22;4975918;28;45604;-70
2023/10/22 10:32:14;;;;;;;;;1.00;0.00;;;;;18.38;100.00;100645.22;4970482;28;45452;-70
2023/10/22 10:34:41;;;;;;;;;1.33;1.33;;;;;18.40;100.00;100654.06;4973330;28;47031;-70
2023/10/22 10:37:12;;;;;;;;;3.00;2.00;;;;;18.38;100.00;100652.34;4973272;28;45436;-71
2023/10/22 10:39:42;;;;;;;;;0.67;0.67;;;;;18.40;100.00;100655.88;4973404;28;45478;-70
2023/10/22 10:42:09;;;;;;;;;2.00;1.00;;;;;18.42;100.00;100652.22;4973260;28;45632;-70
2023/10/22 10:45:15;;;;;;;;;1.33;1.00;;;;;18.43;100.00;100642.41;4972517;28;47647;-70
2023/10/22 10:47:41;;;;;;;;;2.33;1.00;;;;;18.48;100.00;100645.84;4993574;28;45474;-70
2023/10/22 10:50:11;;;;;;;;;2.33;0.00;;;;;18.56;100.00;100660.78;4993403;28;57936;-70
2023/10/22 10:52:42;;;;;;;;;1.33;1.00;;;;;18.65;100.00;100654.34;4983675;28;45462;-70
2023/10/22 10:55:09;;;;;;;;;1.00;1.00;;;;;18.73;100.00;100640.81;4973536;28;46729;-71
2023/10/22 10:57:39;;;;;;;;;4.00;1.00;;;;;18.79;100.00;100652.22;5026817;28;46372;-70
2023/10/22 11:00:06;;;;;;;;;1.00;0.00;;;;;18.79;100.00;100654.00;4972834;28;46001;-70
2023/10/22 11:02:45;;;;;;;;;3.00;2.33;;;;;18.82;100.00;100652.16;4977069;28;45494;-70
2023/10/22 11:05:10;;;;;;;;;4.00;1.00;;;;;18.83;100.00;100655.69;4969185;28;46958;-73
2023/10/22 11:07:36;;;;;;;;;4.67;1.33;;;;;18.79;100.00;100643.31;4971263;28;45420;-70
2023/10/22 11:10:08;;;;;;;;;3.00;3.00;;;;;18.76;100.00;100648.75;4973224;28;45487;-70
2023/10/22 11:12:33;;;;;;;;;4.67;2.00;;;;;18.78;100.00;100642.44;4975808;28;45492;-71
2023/10/22 11:14:59;;;;;;;;;1.67;1.00;;;;;18.79;100.00;100646.00;4975829;28;47331;-71
2023/10/22 11:17:26;;;;;;;;;3.67;2.00;;;;;18.79;100.00;100646.88;4975776;28;45473;-71